createdAt,value
2019-02-06T00:01:42.452Z,30.68
2019-02-06T00:04:10.871Z,31.87
2019-02-06T00:06:39.309Z,30.35
2019-02-06T00:09:10.910Z,32.60
2019-02-06T00:11:39.319Z,33.30
2019-02-06T00:14:07.758Z,30.50
2019-02-06T00:16:36.167Z,31.48
2019-02-06T00:19:04.589Z,32.28
2019-02-06T00:21:33.132Z,32.38
2019-02-06T00:24:01.532Z,32.67
2019-02-06T00:26:29.948Z,31.48
2019-02-06T00:28:58.379Z,34.05
2019-02-06T00:31:26.872Z,32.83
2019-02-06T00:33:55.290Z,31.05
2019-02-06T00:36:23.737Z,32.38
2019-02-06T00:38:52.460Z,32.80
2019-02-06T00:41:20.870Z,31.95
2019-02-06T00:43:49.328Z,31.97
2019-02-06T00:46:17.732Z,26.42
2019-02-06T00:48:46.135Z,28.85
2019-02-06T00:51:14.574Z,33.45
2019-02-06T00:53:42.991Z,27.93
2019-02-06T00:56:11.391Z,32.40
2019-02-06T00:58:39.837Z,35.08
2019-02-06T01:01:08.243Z,31.30
2019-02-06T01:03:36.661Z,38.95
2019-02-06T01:06:05.172Z,40.35
2019-02-06T01:08:33.582Z,36.00
2019-02-06T01:11:02.509Z,32.88
2019-02-06T01:13:30.940Z,35.58
2019-02-06T01:15:59.352Z,33.48
2019-02-06T01:18:27.774Z,29.95
2019-02-06T01:20:56.214Z,33.20
2019-02-06T01:23:24.622Z,33.05
2019-02-06T01:25:53.047Z,35.78
2019-02-06T01:28:21.891Z,36.15
2019-02-06T01:30:54.926Z,36.33
2019-02-06T01:33:23.345Z,34.73
2019-02-06T01:35:51.779Z,36.35
2019-02-06T01:38:20.189Z,32.03
2019-02-06T01:40:48.613Z,35.13
2019-02-06T01:43:17.446Z,30.10
2019-02-06T01:45:46.337Z,31.70
2019-02-06T01:48:14.752Z,28.30
2019-02-06T01:50:43.199Z,32.40
2019-02-06T01:53:11.613Z,28.52
2019-02-06T01:55:40.023Z,29.70
2019-02-06T01:58:08.455Z,25.75
2019-02-06T02:00:37.169Z,30.80
2019-02-06T02:03:05.587Z,29.35
2019-02-06T02:05:34.095Z,29.23
2019-02-06T02:08:02.507Z,27.10
2019-02-06T02:10:30.921Z,30.23
2019-02-06T02:12:59.360Z,30.77
2019-02-06T02:15:27.787Z,30.68
2019-02-06T02:17:56.597Z,30.60
2019-02-06T02:20:25.035Z,34.92
2019-02-06T02:22:53.432Z,43.25
2019-02-06T02:25:21.858Z,36.98
2019-02-06T02:27:50.296Z,34.20
2019-02-06T02:30:25.884Z,33.58
2019-02-06T02:32:54.316Z,35.05
2019-02-06T02:35:22.731Z,33.33
2019-02-06T02:37:51.136Z,32.83
2019-02-06T02:40:19.589Z,33.45
2019-02-06T02:42:48.014Z,34.35
2019-02-06T02:45:17.541Z,31.90
2019-02-06T02:47:46.341Z,32.65
2019-02-06T02:50:14.754Z,32.42
2019-02-06T02:52:43.285Z,30.70
2019-02-06T02:55:14.802Z,29.15
2019-02-06T02:57:43.273Z,27.35
2019-02-06T03:00:20.859Z,27.42
2019-02-06T03:02:59.536Z,27.87
2019-02-06T03:05:29.841Z,35.00
2019-02-06T03:07:58.262Z,43.52
2019-02-06T03:10:26.675Z,55.90
2019-02-06T03:12:55.175Z,53.20
2019-02-06T03:15:23.689Z,55.40
2019-02-06T03:17:52.201Z,74.12
2019-02-06T03:20:20.756Z,60.33
2019-02-06T03:22:49.449Z,61.70
2019-02-06T03:25:17.861Z,53.35
2019-02-06T03:27:46.320Z,49.77
2019-02-06T03:30:17.064Z,48.48
2019-02-06T03:32:45.474Z,48.48
2019-02-06T03:35:14.172Z,56.28
2019-02-06T03:37:42.693Z,53.73
2019-02-06T03:40:16.589Z,59.10
2019-02-06T03:42:45.051Z,56.33
2019-02-06T03:45:13.997Z,67.58
2019-02-06T03:47:42.414Z,62.55
2019-02-06T03:50:18.862Z,70.40
2019-02-06T03:52:47.269Z,61.60
2019-02-06T03:55:15.827Z,60.90
2019-02-06T03:57:44.259Z,47.85
2019-02-06T04:00:20.549Z,48.92
2019-02-06T04:02:48.996Z,50.08
2019-02-06T04:05:17.410Z,51.85
2019-02-06T04:07:45.828Z,53.68
2019-02-06T04:10:16.564Z,49.08
2019-02-06T04:12:44.986Z,45.80
2019-02-06T04:15:13.712Z,47.62
2019-02-06T04:17:42.173Z,53.35
2019-02-06T04:20:18.296Z,47.78
2019-02-06T04:22:47.127Z,54.40
2019-02-06T04:25:15.539Z,43.52
2019-02-06T04:27:43.966Z,52.03
2019-02-06T04:30:19.647Z,48.75
2019-02-06T04:32:48.065Z,46.10
2019-02-06T04:35:16.469Z,48.38
2019-02-06T04:37:44.926Z,50.23
2019-02-06T04:40:18.563Z,51.15
2019-02-06T04:42:47.360Z,55.85
2019-02-06T04:45:17.460Z,54.30
2019-02-06T04:47:45.881Z,47.33
2019-02-06T04:50:15.254Z,49.77
2019-02-06T04:52:43.698Z,45.90
2019-02-06T04:55:14.601Z,37.80
2019-02-06T04:57:43.024Z,42.62
2019-02-06T05:00:20.615Z,35.58
2019-02-06T05:02:49.035Z,39.55
2019-02-06T05:05:17.445Z,42.98
2019-02-06T05:07:45.898Z,42.00
2019-02-06T05:10:14.854Z,44.13
2019-02-06T05:12:43.574Z,42.88
2019-02-06T05:15:13.547Z,42.58
2019-02-06T05:17:41.979Z,43.45
2019-02-06T05:20:13.650Z,45.83
2019-02-06T05:22:42.213Z,37.08
2019-02-06T05:25:10.614Z,43.02
2019-02-06T05:27:39.035Z,35.17
2019-02-06T05:30:10.115Z,34.85
2019-02-06T05:32:42.803Z,35.25
2019-02-06T05:35:08.595Z,40.23
2019-02-06T05:37:37.043Z,37.93
2019-02-06T05:40:08.101Z,38.75
2019-02-06T05:42:36.518Z,31.70
2019-02-06T05:45:08.763Z,32.05
2019-02-06T05:47:37.163Z,34.30
2019-02-06T05:50:08.975Z,31.02
2019-02-06T05:52:37.428Z,32.67
2019-02-06T05:55:06.971Z,32.33
2019-02-06T05:57:35.397Z,34.85
2019-02-06T06:00:07.774Z,38.60
2019-02-06T06:02:36.182Z,34.27
2019-02-06T06:05:05.566Z,31.90
2019-02-06T06:07:44.816Z,36.13
2019-02-06T06:10:06.288Z,35.68
2019-02-06T06:12:34.696Z,37.58
2019-02-06T06:15:03.908Z,36.33
2019-02-06T06:17:32.326Z,36.40
2019-02-06T06:20:00.742Z,36.23
2019-02-06T06:22:29.179Z,32.13
2019-02-06T06:24:57.606Z,35.38
2019-02-06T06:27:26.024Z,68.07
2019-02-06T06:29:54.465Z,38.55
2019-02-06T06:32:23.385Z,36.85
2019-02-06T06:34:51.797Z,36.20
2019-02-06T06:37:20.250Z,38.75
2019-02-06T06:39:48.699Z,42.88
2019-02-06T06:42:17.085Z,38.20
2019-02-06T06:44:45.530Z,39.92
2019-02-06T06:47:14.509Z,39.63
2019-02-06T06:49:43.235Z,38.98
2019-02-06T06:52:11.685Z,37.10
2019-02-06T06:54:40.088Z,37.78
2019-02-06T06:57:08.497Z,47.55
2019-02-06T06:59:36.969Z,44.13
2019-02-06T07:02:05.361Z,47.45
2019-02-06T07:04:34.271Z,43.50
2019-02-06T07:07:02.732Z,45.58
2019-02-06T07:09:31.143Z,49.88
2019-02-06T07:11:59.559Z,42.25
2019-02-06T07:14:28.004Z,40.88
2019-02-06T07:16:56.424Z,35.20
2019-02-06T07:19:24.853Z,38.40
2019-02-06T07:21:53.674Z,34.38
2019-02-06T07:24:22.082Z,35.05
2019-02-06T07:26:50.504Z,35.10
2019-02-06T07:29:18.945Z,38.17
2019-02-06T07:31:47.365Z,37.58
2019-02-06T07:34:15.790Z,36.45
2019-02-06T07:36:44.232Z,38.20
2019-02-06T07:39:12.657Z,37.70
2019-02-06T07:41:41.085Z,36.95
2019-02-06T07:44:09.524Z,37.73
2019-02-06T07:46:37.942Z,39.90
2019-02-06T07:49:06.354Z,36.20
2019-02-06T07:51:34.785Z,39.23
2019-02-06T07:54:03.502Z,41.15
2019-02-06T07:56:31.917Z,39.60
2019-02-06T07:59:00.353Z,40.30
2019-02-06T08:01:28.764Z,38.40
2019-02-06T08:03:57.202Z,39.38
2019-02-06T08:06:25.647Z,39.70
2019-02-06T08:08:54.059Z,38.90
2019-02-06T08:11:22.776Z,41.83
2019-02-06T08:13:51.313Z,44.70
2019-02-06T08:16:19.814Z,38.17
2019-02-06T08:18:48.255Z,40.45
2019-02-06T08:21:16.695Z,39.13
2019-02-06T08:23:45.098Z,37.50
2019-02-06T08:26:13.512Z,35.52
2019-02-06T08:28:42.252Z,38.02
2019-02-06T08:31:10.666Z,35.55
2019-02-06T08:33:39.093Z,36.83
2019-02-06T08:36:07.527Z,36.45
2019-02-06T08:38:47.089Z,37.60
2019-02-06T08:41:06.011Z,42.55
2019-02-06T08:43:34.742Z,37.17
2019-02-06T08:46:03.164Z,40.45
2019-02-06T08:48:31.559Z,42.93
2019-02-06T08:51:00.005Z,49.42
2019-02-06T08:53:28.424Z,46.25
2019-02-06T08:55:56.837Z,46.88
2019-02-06T08:58:25.280Z,42.70
2019-02-06T09:00:54.105Z,42.83
2019-02-06T09:03:22.521Z,40.88
2019-02-06T09:05:50.972Z,41.85
2019-02-06T09:08:19.372Z,38.25
2019-02-06T09:10:47.863Z,39.42
2019-02-06T09:13:16.340Z,41.95
2019-02-06T09:15:44.744Z,55.35
2019-02-06T09:18:13.166Z,51.45
2019-02-06T09:20:41.616Z,53.50
2019-02-06T09:23:10.017Z,47.27
2019-02-06T09:25:38.469Z,53.92
2019-02-06T09:28:06.864Z,52.38
2019-02-06T09:30:35.736Z,52.55
2019-02-06T09:33:04.630Z,51.00
2019-02-06T09:35:33.076Z,55.05
2019-02-06T09:38:01.484Z,52.27
2019-02-06T09:40:31.438Z,49.27
2019-02-06T09:42:59.877Z,39.55
2019-02-06T09:45:28.290Z,31.45
2019-02-06T09:47:56.718Z,28.20
2019-02-06T09:50:36.191Z,28.73
2019-02-06T09:53:04.762Z,29.25
2019-02-06T09:55:33.192Z,28.67
2019-02-06T09:58:01.639Z,29.23
2019-02-06T10:00:37.673Z,30.85
2019-02-06T10:03:07.824Z,28.67
2019-02-06T10:05:36.297Z,28.50
2019-02-06T10:08:04.784Z,25.72
2019-02-06T10:10:33.240Z,26.15
2019-02-06T10:13:01.645Z,28.75
2019-02-06T10:15:32.885Z,27.73
2019-02-06T10:18:01.786Z,28.83
2019-02-06T10:20:33.296Z,29.92
2019-02-06T10:23:01.728Z,30.62
2019-02-06T10:25:30.394Z,28.55
2019-02-06T10:27:58.805Z,31.62
2019-02-06T10:30:32.731Z,28.02
2019-02-06T10:35:29.179Z,31.30
2019-02-06T10:37:57.596Z,28.20
2019-02-06T10:40:26.171Z,28.75
2019-02-06T10:42:54.577Z,25.77
2019-02-06T10:45:23.000Z,21.82
2019-02-06T10:47:51.432Z,21.02
2019-02-06T10:50:37.961Z,22.32
2019-02-06T10:53:06.407Z,19.85
2019-02-06T10:55:34.818Z,19.17
2019-02-06T10:58:03.241Z,17.77
2019-02-06T11:00:34.099Z,18.10
2019-02-06T11:03:02.509Z,19.12
2019-02-06T11:05:30.939Z,18.85
2019-02-06T11:07:59.365Z,17.23
2019-02-06T11:10:28.726Z,16.67
2019-02-06T11:12:57.155Z,15.13
2019-02-06T11:15:25.662Z,15.05
2019-02-06T11:17:54.390Z,15.38
2019-02-06T11:20:25.149Z,14.20
2019-02-06T11:22:53.588Z,14.68
2019-02-06T11:25:22.020Z,14.98
2019-02-06T11:27:50.421Z,14.50
2019-02-06T11:30:30.721Z,13.90
2019-02-06T11:32:59.211Z,12.88
2019-02-06T11:35:27.627Z,12.98
2019-02-06T11:37:56.092Z,15.30
2019-02-06T11:40:25.056Z,13.03
2019-02-06T11:42:53.915Z,13.05
2019-02-06T11:45:31.523Z,13.45
2019-02-06T11:48:00.041Z,12.53
2019-02-06T11:50:30.092Z,12.23
2019-02-06T11:52:58.547Z,13.05
2019-02-06T11:55:29.203Z,12.68
2019-02-06T11:57:57.633Z,12.80
2019-02-06T12:00:37.286Z,11.57
2019-02-06T12:03:05.784Z,11.78
2019-02-06T12:05:34.222Z,12.35
2019-02-06T12:08:02.653Z,11.43
2019-02-06T12:10:31.070Z,11.50
2019-02-06T12:12:59.498Z,12.00
2019-02-06T12:15:27.950Z,12.03
2019-02-06T12:17:56.361Z,11.10
2019-02-06T12:20:25.717Z,10.88
2019-02-06T12:22:54.173Z,11.12
2019-02-06T12:25:22.587Z,13.62
2019-02-06T12:27:53.341Z,13.58
2019-02-06T12:30:25.182Z,11.75
2019-02-06T12:32:53.601Z,11.30
2019-02-06T12:35:22.015Z,11.53
2019-02-06T12:37:50.558Z,10.28
2019-02-06T12:40:21.537Z,10.32
2019-02-06T12:42:49.209Z,10.70
2019-02-06T12:45:22.776Z,10.55
2019-02-06T12:47:51.502Z,11.25
2019-02-06T12:50:21.360Z,11.10
2019-02-06T12:52:49.802Z,10.58
2019-02-06T12:55:36.190Z,19.20
2019-02-06T12:58:05.283Z,13.30
2019-02-06T13:00:36.032Z,12.07
2019-02-06T13:03:04.620Z,11.08
2019-02-06T13:05:33.073Z,10.90
2019-02-06T13:08:01.488Z,10.43
2019-02-06T13:10:33.804Z,10.40
2019-02-06T13:12:59.990Z,11.70
2019-02-06T13:15:28.422Z,11.57
2019-02-06T13:17:56.826Z,11.12
2019-02-06T13:20:27.519Z,9.20
2019-02-06T13:22:55.995Z,8.93
2019-02-06T13:25:24.409Z,6.87
2019-02-06T13:27:52.857Z,6.53
2019-02-06T13:30:27.190Z,6.83
2019-02-06T13:32:55.776Z,6.58
2019-02-06T13:35:24.227Z,6.00
2019-02-06T13:37:52.636Z,6.60
2019-02-06T13:40:28.755Z,13.45
2019-02-06T13:42:58.230Z,9.30
2019-02-06T13:45:35.864Z,6.78
2019-02-06T13:48:04.819Z,6.40
2019-02-06T13:50:33.232Z,6.62
2019-02-06T13:53:01.673Z,6.47
2019-02-06T13:55:30.106Z,6.58
2019-02-06T13:57:58.527Z,6.42
2019-02-06T14:00:30.665Z,8.28
2019-02-06T14:02:59.106Z,8.20
2019-02-06T14:05:29.036Z,6.55
2019-02-06T14:08:03.175Z,6.20
2019-02-06T14:10:32.431Z,7.00
2019-02-06T14:13:01.245Z,6.65
2019-02-06T14:15:41.175Z,7.10
2019-02-06T14:18:09.857Z,7.47
2019-02-06T14:20:38.399Z,7.45
2019-02-06T14:23:10.103Z,7.80
2019-02-06T14:25:42.309Z,8.50
2019-02-06T14:28:14.017Z,8.30
2019-02-06T14:31:06.542Z,8.33
2019-02-06T14:34:02.340Z,7.28
2019-02-06T14:36:45.882Z,7.50
2019-02-06T14:39:32.762Z,7.95
2019-02-06T14:42:10.208Z,8.05
2019-02-06T14:44:48.021Z,8.25
2019-02-06T14:47:22.776Z,8.63
2019-02-06T14:50:09.131Z,8.93
2019-02-06T14:52:46.762Z,9.68
2019-02-06T14:55:24.404Z,8.98
2019-02-06T14:58:17.310Z,9.20
2019-02-06T15:00:59.474Z,9.05
2019-02-06T15:03:37.009Z,8.55
2019-02-06T15:06:25.161Z,17.80
2019-02-06T15:09:09.053Z,10.80
2019-02-06T15:11:43.219Z,10.00
2019-02-06T15:17:15.470Z,9.35
2019-02-06T15:20:03.671Z,10.15
2019-02-06T15:23:07.181Z,9.90
2019-02-06T15:25:38.851Z,9.35
2019-02-06T15:28:31.484Z,9.55
2019-02-06T15:31:26.095Z,11.83
2019-02-06T15:34:15.859Z,10.35
2019-02-06T15:36:47.929Z,11.60
2019-02-06T15:40:54.335Z,10.20
2019-02-06T15:43:39.008Z,13.68
2019-02-06T15:46:31.389Z,13.03
2019-02-06T15:49:16.073Z,10.93
2019-02-06T15:52:06.587Z,10.10
2019-02-06T15:54:48.474Z,10.70
2019-02-06T15:57:33.181Z,10.53
2019-02-06T16:00:14.711Z,10.58
2019-02-06T16:02:53.380Z,11.40
2019-02-06T16:05:39.395Z,13.53
2019-02-06T16:08:36.027Z,15.15
2019-02-06T16:11:27.733Z,11.78
2019-02-06T16:14:24.409Z,11.65
2019-02-06T16:17:00.259Z,12.75
2019-02-06T16:19:51.052Z,12.78
2019-02-06T16:22:35.397Z,104.92
2019-02-06T16:25:29.037Z,24.52
2019-02-06T16:28:17.952Z,22.22
2019-02-06T16:30:59.554Z,22.67
2019-02-06T16:33:34.746Z,24.37
2019-02-06T16:36:25.138Z,18.10
2019-02-06T16:39:08.969Z,24.67
2019-02-06T16:41:53.317Z,17.05
2019-02-06T16:44:30.786Z,21.65
2019-02-06T16:47:24.433Z,16.80
2019-02-06T16:50:02.893Z,13.15
2019-02-06T16:52:38.680Z,13.35
2019-02-06T16:55:27.538Z,23.77
2019-02-06T16:58:08.861Z,13.30
2019-02-06T17:00:59.483Z,13.53
2019-02-06T17:03:50.160Z,13.83
2019-02-06T17:06:34.077Z,15.38
2019-02-06T17:09:23.260Z,13.03
2019-02-06T17:12:16.205Z,12.33
2019-02-06T17:14:48.779Z,30.85
2019-02-06T17:17:21.341Z,28.30
2019-02-06T17:19:56.598Z,16.15
2019-02-06T17:22:42.948Z,27.07
2019-02-06T17:25:24.164Z,30.43
2019-02-06T17:28:05.399Z,26.80
2019-02-06T17:30:46.577Z,19.92
2019-02-06T17:33:27.906Z,22.22
2019-02-06T17:36:24.944Z,19.55
2019-02-06T17:39:23.767Z,18.15
2019-02-06T17:42:15.904Z,16.27
2019-02-06T17:45:12.344Z,35.40
2019-02-06T17:48:03.386Z,30.32
2019-02-06T17:50:50.968Z,25.77
2019-02-06T17:53:29.319Z,43.17
2019-02-06T17:55:58.619Z,31.73
2019-02-06T17:58:29.893Z,32.60
2019-02-06T18:01:03.810Z,46.18
2019-02-06T18:03:36.620Z,47.00
2019-02-06T18:06:06.058Z,46.48
2019-02-06T18:08:37.054Z,48.28
2019-02-06T18:11:06.541Z,40.00
2019-02-06T18:13:35.849Z,28.70
2019-02-06T18:16:05.726Z,23.38
2019-02-06T18:18:35.054Z,22.17
2019-02-06T18:21:04.495Z,18.50
2019-02-06T18:23:33.811Z,15.90
2019-02-06T18:26:03.210Z,17.45
2019-02-06T18:28:32.524Z,18.52
2019-02-06T18:31:01.858Z,22.73
2019-02-06T18:33:31.603Z,16.93
2019-02-06T18:36:00.897Z,32.98
2019-02-06T18:38:32.142Z,55.90
2019-02-06T18:41:01.270Z,43.48
2019-02-06T18:43:30.595Z,38.98
2019-02-06T18:45:59.914Z,33.18
2019-02-06T18:48:29.297Z,32.63
2019-02-06T18:50:58.919Z,32.20
2019-02-06T18:53:28.248Z,36.03
2019-02-06T18:55:57.642Z,32.08
2019-02-06T18:58:27.582Z,35.25
2019-02-06T19:00:57.186Z,28.80
2019-02-06T19:03:32.576Z,27.20
2019-02-06T19:06:01.939Z,27.52
2019-02-06T19:08:31.668Z,26.20
2019-02-06T19:11:00.995Z,28.17
2019-02-06T19:13:30.651Z,27.15
2019-02-06T19:15:59.950Z,27.67
2019-02-06T19:18:29.284Z,25.48
2019-02-06T19:20:58.646Z,26.25
2019-02-06T19:23:27.980Z,28.73
2019-02-06T19:25:57.630Z,27.82
2019-02-06T19:28:26.990Z,27.60
2019-02-06T19:30:56.318Z,29.45
2019-02-06T19:33:26.727Z,38.85
2019-02-06T19:35:56.112Z,36.70
2019-02-06T19:38:25.526Z,27.30
2019-02-06T19:40:54.935Z,27.07
2019-02-06T19:43:24.470Z,19.02
2019-02-06T19:45:53.831Z,17.50
2019-02-06T19:48:23.237Z,21.33
2019-02-06T19:50:53.150Z,46.40
2019-02-06T19:53:22.453Z,44.95
2019-02-06T19:55:52.165Z,44.85
2019-02-06T19:58:21.506Z,37.05
2019-02-06T20:00:51.375Z,32.23
2019-02-06T20:03:20.694Z,36.35
2019-02-06T20:05:50.022Z,29.12
2019-02-06T20:08:19.405Z,29.35
2019-02-06T20:10:51.053Z,28.25
2019-02-06T20:13:20.451Z,25.75
2019-02-06T20:15:49.755Z,22.98
2019-02-06T20:18:19.169Z,21.87
2019-02-06T20:20:48.486Z,19.35
2019-02-06T20:23:17.790Z,17.37
2019-02-06T20:25:47.139Z,16.17
2019-02-06T20:28:16.473Z,31.10
2019-02-06T20:30:45.817Z,33.20
2019-02-06T20:33:15.544Z,29.92
2019-02-06T20:35:44.859Z,34.58
2019-02-06T20:38:14.175Z,30.70
2019-02-06T20:40:44.605Z,33.35
2019-02-06T20:43:21.685Z,31.02
2019-02-06T20:45:44.947Z,25.65
2019-02-06T20:48:14.324Z,22.07
2019-02-06T20:50:44.003Z,19.60
2019-02-06T20:53:13.341Z,20.43
2019-02-06T20:55:42.638Z,17.92
2019-02-06T20:58:11.941Z,23.67
2019-02-06T21:00:44.156Z,47.60
2019-02-06T21:03:13.453Z,44.93
2019-02-06T21:05:43.343Z,42.65
2019-02-06T21:08:12.659Z,37.23
2019-02-06T21:10:41.964Z,37.23
2019-02-06T21:13:11.259Z,39.42
2019-02-06T21:15:40.593Z,30.97
2019-02-06T21:18:09.877Z,27.27
2019-02-06T21:20:39.172Z,24.37
2019-02-06T21:23:08.524Z,22.27
2019-02-06T21:25:37.820Z,20.60
2019-02-06T21:28:07.211Z,23.27
2019-02-06T21:30:39.222Z,34.33
2019-02-06T21:33:08.536Z,49.25
2019-02-06T21:35:37.981Z,39.10
2019-02-06T21:38:07.315Z,33.23
2019-02-06T21:40:37.652Z,26.85
2019-02-06T21:43:07.350Z,23.87
2019-02-06T21:45:36.672Z,21.45
2019-02-06T21:48:06.518Z,20.88
2019-02-06T21:50:36.121Z,21.68
2019-02-06T21:53:05.472Z,23.15
2019-02-06T21:55:34.775Z,39.30
2019-02-06T21:58:04.065Z,43.50
2019-02-06T22:01:01.222Z,40.48
2019-02-06T22:03:31.093Z,43.60
2019-02-06T22:06:00.410Z,43.40
2019-02-06T22:08:29.750Z,38.67
2019-02-06T22:10:59.041Z,40.63
2019-02-06T22:13:28.361Z,43.85
2019-02-06T22:15:57.685Z,40.98
2019-02-06T22:18:26.990Z,42.73
2019-02-06T22:20:56.301Z,42.53
2019-02-06T22:23:25.647Z,43.28
2019-02-06T22:25:54.971Z,42.60
2019-02-06T22:28:24.305Z,36.28
2019-02-06T22:30:53.626Z,26.40
2019-02-06T22:33:23.190Z,30.82
2019-02-06T22:35:52.515Z,30.60
2019-02-06T22:38:21.937Z,23.30
2019-02-06T22:40:51.339Z,23.87
2019-02-06T22:43:20.652Z,19.67
2019-02-06T22:45:49.982Z,23.45
2019-02-06T22:48:19.282Z,23.87
2019-02-06T22:50:48.597Z,24.72
2019-02-06T22:53:17.919Z,27.32
2019-02-06T22:55:47.224Z,27.80
2019-02-06T22:58:16.537Z,30.02
2019-02-06T23:00:56.200Z,42.67
2019-02-06T23:03:31.675Z,38.88
2019-02-06T23:06:01.076Z,36.53
2019-02-06T23:08:30.445Z,33.92
2019-02-06T23:11:00.060Z,30.88
2019-02-06T23:13:29.393Z,27.80
2019-02-06T23:15:58.707Z,32.50
2019-02-06T23:18:28.025Z,30.68
2019-02-06T23:20:57.417Z,35.83
2019-02-06T23:23:26.729Z,40.15
2019-02-06T23:25:56.443Z,30.62
2019-02-06T23:28:25.757Z,34.55
2019-02-06T23:31:01.334Z,24.50
2019-02-06T23:33:31.735Z,31.48
2019-02-06T23:36:01.039Z,30.05
2019-02-06T23:38:32.221Z,29.42
2019-02-06T23:41:01.517Z,25.75
2019-02-06T23:43:30.829Z,22.50
2019-02-06T23:46:00.151Z,29.02
2019-02-06T23:48:29.453Z,24.30
2019-02-06T23:50:58.770Z,25.82
2019-02-06T23:53:28.392Z,24.95
2019-02-06T23:55:57.707Z,25.70
2019-02-06T23:58:27.012Z,25.70
